NOZ936 ENGM-EKCH
Flight info
| Callsign | NOZ936 |
|---|---|
| Flight time | 0h 48m |
| Altitude | 31000 |
| Route | OKSAT L996 GETPA/N0458F370 L996 KELIN DCT TOPLA L996 ERNOV |
| Aircraft | B738/M-SDE2E3FGHIRWXY/LB1 |
Departure
| Time | 2026-05-04 08:13 |
|---|---|
| Airport | Oslo-Gardermoen International Airport (ENGM) |
Arrival
| Time | 2026-05-04 09:01 |
|---|---|
| Airport | Copenhagen Kastrup Airport (EKCH) |
| Time | Latitude | Longitude | Altitude | Speed | Heading |
|---|---|---|---|---|---|
| 2026-05-04 07:49 | 60.19631 | 11.09954 | 684 ft | 0 kts | 106° |
| 2026-05-04 08:03 | 60.19634 | 11.09935 | 676 ft | 4 kts | 106° |
| 2026-05-04 08:03 | 60.19641 | 11.09884 | 679 ft | 4 kts | 106° |
| 2026-05-04 08:04 | 60.19643 | 11.09870 | 681 ft | 1 kts | 106° |
| 2026-05-04 08:08 | 60.19647 | 11.09879 | 679 ft | 1 kts | 47° |
| 2026-05-04 08:08 | 60.19660 | 11.09862 | 678 ft | 5 kts | 314° |
| 2026-05-04 08:10 | 60.19819 | 11.11077 | 682 ft | 23 kts | 106° |
| 2026-05-04 08:11 | 60.19769 | 11.11382 | 681 ft | 23 kts | 118° |
| 2026-05-04 08:11 | 60.19687 | 11.11824 | 679 ft | 16 kts | 127° |
| 2026-05-04 08:11 | 60.19609 | 11.11952 | 682 ft | 11 kts | 172° |
| 2026-05-04 08:12 | 60.19571 | 11.11933 | 683 ft | 5 kts | 200° |
| 2026-05-04 08:12 | 60.19361 | 11.11809 | 682 ft | 71 kts | 196° |
| 2026-05-04 08:12 | 60.18620 | 11.11379 | 683 ft | 147 kts | 197° |
| 2026-05-04 08:12 | 60.17505 | 11.10778 | 1173 ft | 170 kts | 197° |
| 2026-05-04 08:13 | 60.16363 | 11.10175 | 2281 ft | 170 kts | 198° |
| 2026-05-04 08:13 | 60.15202 | 11.09587 | 3152 ft | 180 kts | 199° |
| 2026-05-04 08:13 | 60.13914 | 11.08859 | 3728 ft | 202 kts | 204° |
| 2026-05-04 08:13 | 60.12640 | 11.07694 | 4541 ft | 200 kts | 207° |
| 2026-05-04 08:14 | 60.11196 | 11.07647 | 5036 ft | 231 kts | 159° |
| 2026-05-04 08:14 | 60.09959 | 11.09800 | 5621 ft | 245 kts | 122° |
| 2026-05-04 08:14 | 60.09228 | 11.12862 | 6487 ft | 234 kts | 115° |
| 2026-05-04 08:16 | 60.00230 | 11.21675 | 10851 ft | 264 kts | 170° |
| 2026-05-04 08:16 | 59.98421 | 11.22702 | 11272 ft | 281 kts | 172° |
| 2026-05-04 08:16 | 59.96430 | 11.23714 | 11459 ft | 308 kts | 172° |
| 2026-05-04 08:17 | 59.94257 | 11.24773 | 11668 ft | 335 kts | 172° |
| 2026-05-04 08:17 | 59.91918 | 11.25909 | 12032 ft | 354 kts | 172° |
| 2026-05-04 08:17 | 59.89501 | 11.27102 | 12752 ft | 361 kts | 172° |
| 2026-05-04 08:17 | 59.87049 | 11.28321 | 13578 ft | 365 kts | 172° |
| 2026-05-04 08:19 | 59.69334 | 11.37102 | 18706 ft | 387 kts | 173° |
| 2026-05-04 08:19 | 59.66719 | 11.38388 | 19323 ft | 389 kts | 173° |
| 2026-05-04 08:20 | 59.64117 | 11.39666 | 19936 ft | 392 kts | 173° |
| 2026-05-04 08:20 | 59.61423 | 11.40986 | 20543 ft | 395 kts | 173° |
| 2026-05-04 08:20 | 59.58743 | 11.42297 | 21150 ft | 399 kts | 173° |
| 2026-05-04 08:20 | 59.56077 | 11.43599 | 21724 ft | 402 kts | 173° |
| 2026-05-04 08:21 | 59.53351 | 11.44928 | 22311 ft | 405 kts | 173° |
| 2026-05-04 08:21 | 59.50605 | 11.46264 | 22878 ft | 408 kts | 174° |
| 2026-05-04 08:21 | 59.47804 | 11.47626 | 23417 ft | 411 kts | 174° |
| 2026-05-04 08:21 | 59.45012 | 11.48980 | 23848 ft | 414 kts | 173° |
| 2026-05-04 08:22 | 59.42207 | 11.50339 | 24313 ft | 417 kts | 173° |
| 2026-05-04 08:22 | 59.39418 | 11.51689 | 24775 ft | 419 kts | 173° |
| 2026-05-04 08:24 | 59.19113 | 11.61441 | 27536 ft | 438 kts | 172° |
| 2026-05-04 08:24 | 59.16141 | 11.62858 | 27881 ft | 441 kts | 172° |
| 2026-05-04 08:24 | 59.13115 | 11.64299 | 28287 ft | 442 kts | 172° |
| 2026-05-04 08:24 | 59.10127 | 11.65721 | 28831 ft | 440 kts | 172° |
| 2026-05-04 08:25 | 59.07163 | 11.67131 | 29385 ft | 438 kts | 172° |
| 2026-05-04 08:25 | 59.04199 | 11.68536 | 29792 ft | 439 kts | 172° |
| 2026-05-04 08:25 | 59.01224 | 11.69940 | 30116 ft | 441 kts | 172° |
| 2026-05-04 08:25 | 58.98247 | 11.71344 | 30547 ft | 439 kts | 172° |
| 2026-05-04 08:26 | 58.95274 | 11.72744 | 30760 ft | 441 kts | 172° |
| 2026-05-04 08:27 | 58.74570 | 11.82423 | 30763 ft | 438 kts | 172° |
| 2026-05-04 08:28 | 58.68636 | 11.85174 | 30777 ft | 439 kts | 172° |
| 2026-05-04 08:28 | 58.62689 | 11.87924 | 30775 ft | 440 kts | 172° |
| 2026-05-04 08:29 | 58.56728 | 11.90669 | 30778 ft | 441 kts | 172° |
| 2026-05-04 08:31 | 58.32879 | 12.01562 | 30784 ft | 440 kts | 172° |
| 2026-05-04 08:33 | 58.08911 | 12.09538 | 30793 ft | 436 kts | 178° |
| 2026-05-04 08:35 | 57.84879 | 12.15764 | 30799 ft | 435 kts | 177° |
| 2026-05-04 08:35 | 57.78891 | 12.17316 | 30805 ft | 436 kts | 177° |
| 2026-05-04 08:37 | 57.57927 | 12.22707 | 30811 ft | 432 kts | 178° |
| 2026-05-04 08:38 | 57.51979 | 12.24225 | 30818 ft | 430 kts | 178° |
| 2026-05-04 08:38 | 57.46093 | 12.25722 | 30817 ft | 429 kts | 178° |
| 2026-05-04 08:40 | 57.22570 | 12.31665 | 30342 ft | 414 kts | 178° |
| 2026-05-04 08:40 | 57.19699 | 12.32379 | 29480 ft | 419 kts | 178° |
| 2026-05-04 08:41 | 57.16813 | 12.33096 | 28725 ft | 418 kts | 178° |
| 2026-05-04 08:41 | 57.14907 | 12.33573 | 28312 ft | 416 kts | 178° |
| 2026-05-04 08:41 | 57.12053 | 12.34287 | 27753 ft | 412 kts | 178° |
| 2026-05-04 08:41 | 57.09221 | 12.34993 | 27104 ft | 410 kts | 178° |
| 2026-05-04 08:42 | 57.06410 | 12.35691 | 26563 ft | 406 kts | 178° |
| 2026-05-04 08:42 | 57.03590 | 12.36391 | 26004 ft | 402 kts | 178° |
| 2026-05-04 08:42 | 57.00836 | 12.37072 | 25509 ft | 397 kts | 178° |
| 2026-05-04 08:42 | 56.98110 | 12.37745 | 25030 ft | 393 kts | 178° |
| 2026-05-04 08:43 | 56.95408 | 12.38411 | 24545 ft | 390 kts | 178° |
| 2026-05-04 08:43 | 56.92733 | 12.39069 | 24067 ft | 387 kts | 178° |
| 2026-05-04 08:43 | 56.90073 | 12.39722 | 23588 ft | 384 kts | 178° |
| 2026-05-04 08:43 | 56.87431 | 12.40369 | 23016 ft | 382 kts | 178° |
| 2026-05-04 08:44 | 56.84811 | 12.41011 | 22508 ft | 378 kts | 178° |
| 2026-05-04 08:44 | 56.82250 | 12.41638 | 22036 ft | 374 kts | 178° |
| 2026-05-04 08:46 | 56.64724 | 12.45903 | 18830 ft | 354 kts | 179° |
| 2026-05-04 08:46 | 56.62291 | 12.46491 | 18372 ft | 352 kts | 179° |
| 2026-05-04 08:46 | 56.59875 | 12.47075 | 17902 ft | 350 kts | 179° |
| 2026-05-04 08:46 | 56.57463 | 12.47657 | 17413 ft | 348 kts | 179° |
| 2026-05-04 08:47 | 56.55069 | 12.48234 | 16946 ft | 346 kts | 179° |
| 2026-05-04 08:47 | 56.52693 | 12.48807 | 16498 ft | 343 kts | 179° |
| 2026-05-04 08:47 | 56.50332 | 12.49375 | 16060 ft | 341 kts | 179° |
| 2026-05-04 08:47 | 56.47986 | 12.49938 | 15604 ft | 339 kts | 179° |
| 2026-05-04 08:48 | 56.45658 | 12.50497 | 15180 ft | 337 kts | 178° |
| 2026-05-04 08:48 | 56.43344 | 12.51052 | 14762 ft | 334 kts | 178° |
| 2026-05-04 08:48 | 56.41046 | 12.51603 | 14419 ft | 330 kts | 178° |
| 2026-05-04 08:48 | 56.38781 | 12.52152 | 14051 ft | 327 kts | 178° |
| 2026-05-04 08:49 | 56.36530 | 12.52763 | 13600 ft | 329 kts | 174° |
| 2026-05-04 08:50 | 56.23614 | 12.59364 | 11316 ft | 320 kts | 169° |
| 2026-05-04 08:50 | 56.21418 | 12.60463 | 10545 ft | 334 kts | 169° |
| 2026-05-04 08:51 | 56.19178 | 12.61587 | 10143 ft | 332 kts | 169° |
| 2026-05-04 08:51 | 56.16965 | 12.62699 | 9772 ft | 327 kts | 169° |
| 2026-05-04 08:51 | 56.14788 | 12.63791 | 9374 ft | 324 kts | 169° |
| 2026-05-04 08:51 | 56.12617 | 12.64874 | 8977 ft | 323 kts | 169° |
| 2026-05-04 08:52 | 56.10450 | 12.65951 | 8587 ft | 323 kts | 169° |
| 2026-05-04 08:52 | 56.08288 | 12.67023 | 8206 ft | 322 kts | 169° |
| 2026-05-04 08:52 | 56.06139 | 12.68088 | 7828 ft | 320 kts | 168° |
| 2026-05-04 08:52 | 56.04002 | 12.69144 | 7442 ft | 318 kts | 168° |
| 2026-05-04 08:53 | 56.01917 | 12.70488 | 7059 ft | 319 kts | 158° |
| 2026-05-04 08:54 | 55.88392 | 12.83142 | 4500 ft | 305 kts | 155° |
| 2026-05-04 08:55 | 55.86518 | 12.84905 | 4114 ft | 304 kts | 155° |
| 2026-05-04 08:55 | 55.84670 | 12.86645 | 3746 ft | 296 kts | 155° |
| 2026-05-04 08:55 | 55.82882 | 12.88279 | 3472 ft | 281 kts | 162° |
| 2026-05-04 08:55 | 55.81042 | 12.88902 | 3205 ft | 261 kts | 182° |
| 2026-05-04 08:57 | 55.71875 | 12.81216 | 2504 ft | 195 kts | 226° |
| 2026-05-04 09:01 | 55.61283 | 12.64742 | 19 ft | 49 kts | 239° |
| 2026-05-04 09:01 | 55.61191 | 12.64304 | 18 ft | 26 kts | 253° |